createdAt,value
2023-03-04T00:01:01.089Z,0.29
2023-03-04T00:04:13.734Z,0.19
2023-03-04T00:07:26.080Z,-0.01
2023-03-04T00:10:38.673Z,-0.06
2023-03-04T00:13:51.098Z,-0.14
2023-03-04T00:17:04.526Z,-0.22
2023-03-04T00:20:16.978Z,-0.24
2023-03-04T00:23:29.601Z,-0.14
2023-03-04T00:26:41.960Z,-0.10
2023-03-04T00:29:54.588Z,-0.32
2023-03-04T00:33:06.932Z,-0.28
2023-03-04T00:36:19.657Z,-0.31
2023-03-04T00:39:32.034Z,-0.19
2023-03-04T00:42:45.689Z,-0.20
2023-03-04T00:45:58.304Z,-0.06
2023-03-04T00:49:10.972Z,-0.24
2023-03-04T00:52:23.322Z,-0.29
2023-03-04T00:55:35.986Z,-0.32
2023-03-04T00:58:48.415Z,-0.31
2023-03-04T01:02:01.003Z,-0.39
2023-03-04T01:05:13.925Z,-0.27
2023-03-04T01:08:26.733Z,-0.40
2023-03-04T01:11:39.056Z,-0.48
2023-03-04T01:14:51.996Z,-0.43
2023-03-04T01:18:04.350Z,-0.55
2023-03-04T01:21:17.016Z,-0.67
2023-03-04T01:24:30.134Z,-0.64
2023-03-04T01:27:42.722Z,-0.63
2023-03-04T01:30:55.304Z,-0.74
2023-03-04T01:34:09.999Z,-0.74
2023-03-04T01:37:22.404Z,-0.74
2023-03-04T01:40:35.008Z,-0.85
2023-03-04T01:43:47.474Z,-0.88
2023-03-04T01:47:00.132Z,-0.94
2023-03-04T01:50:21.674Z,-0.69
2023-03-04T01:53:34.357Z,-0.77
2023-03-04T01:56:47.439Z,-0.77
2023-03-04T02:00:23.948Z,-0.85
2023-03-04T02:03:36.620Z,-0.91
2023-03-04T02:06:49.065Z,-0.99
2023-03-04T02:10:01.685Z,-1.18
2023-03-04T02:13:15.061Z,-0.97
2023-03-04T02:16:27.406Z,-1.09
2023-03-04T02:20:01.419Z,-1.34
2023-03-04T02:23:25.696Z,-1.43
2023-03-04T02:26:41.407Z,-1.35
2023-03-04T02:29:53.807Z,-1.47
2023-03-04T02:33:06.638Z,-1.44
2023-03-04T02:36:19.031Z,-1.44
2023-03-04T02:39:35.568Z,-1.47
2023-03-04T02:42:47.998Z,-1.80
2023-03-04T02:46:00.677Z,-1.66
2023-03-04T02:49:13.103Z,-1.67
2023-03-04T02:52:25.954Z,-1.53
2023-03-04T02:55:38.403Z,-1.57
2023-03-04T02:58:51.892Z,-1.67
2023-03-04T03:02:04.817Z,-1.74
2023-03-04T03:05:18.435Z,-1.68
2023-03-04T03:08:33.552Z,-1.83
2023-03-04T03:11:46.531Z,-1.84
2023-03-04T03:14:59.765Z,-1.93
2023-03-04T03:18:13.135Z,-2.03
2023-03-04T03:21:27.707Z,-1.99
2023-03-04T03:24:40.448Z,-1.90
2023-03-04T03:27:52.840Z,-1.78
2023-03-04T03:31:05.538Z,-1.87
2023-03-04T03:34:18.281Z,-1.93
2023-03-04T03:37:30.939Z,-2.01
2023-03-04T03:40:43.308Z,-1.95
2023-03-04T03:43:55.953Z,-2.02
2023-03-04T03:47:11.208Z,-2.10
2023-03-04T03:50:23.881Z,-2.15
2023-03-04T03:53:36.286Z,-2.12
2023-03-04T03:56:48.962Z,-1.90
2023-03-04T04:00:01.500Z,-2.00
2023-03-04T04:03:24.457Z,-2.02
2023-03-04T04:06:37.291Z,-2.10
2023-03-04T04:09:49.649Z,-2.16
2023-03-04T04:13:02.282Z,-2.24
2023-03-04T04:16:14.675Z,-2.41
2023-03-04T04:19:27.312Z,-2.49
2023-03-04T04:22:39.688Z,-2.42
2023-03-04T04:25:54.389Z,-2.40
2023-03-04T04:29:08.971Z,-2.34
2023-03-04T04:32:23.842Z,-2.38
2023-03-04T04:35:36.222Z,-2.36
2023-03-04T04:38:49.469Z,-2.39
2023-03-04T04:42:04.530Z,-2.48
2023-03-04T04:45:17.235Z,-2.56
2023-03-04T04:48:29.564Z,-2.49
2023-03-04T04:51:42.203Z,-2.50
2023-03-04T04:54:54.651Z,-2.66
2023-03-04T04:58:07.858Z,-2.67
2023-03-04T05:01:20.435Z,-2.45
2023-03-04T05:04:33.060Z,-2.61
2023-03-04T05:07:45.368Z,-2.57
2023-03-04T05:10:58.008Z,-2.58
2023-03-04T05:14:10.375Z,-2.62
2023-03-04T05:17:23.016Z,-2.50
2023-03-04T05:20:35.353Z,-2.46
2023-03-04T05:23:47.984Z,-2.44
2023-03-04T05:27:00.787Z,-2.49
2023-03-04T05:30:13.675Z,-2.66
2023-03-04T05:33:26.101Z,-2.64
2023-03-04T05:36:41.525Z,-2.56
2023-03-04T05:39:56.613Z,-2.55
2023-03-04T05:43:09.274Z,-2.66
2023-03-04T05:46:25.500Z,-2.60
2023-03-04T05:49:38.460Z,-2.56
2023-03-04T05:52:52.769Z,-2.47
2023-03-04T05:56:10.272Z,-2.73
2023-03-04T05:59:23.543Z,-2.62
2023-03-04T06:02:36.955Z,-2.52
2023-03-04T06:05:51.669Z,-2.48
2023-03-04T06:09:04.066Z,-2.36
2023-03-04T06:12:16.684Z,-2.26
2023-03-04T06:15:29.125Z,-2.31
2023-03-04T06:18:41.751Z,-2.16
2023-03-04T06:21:54.141Z,-2.09
2023-03-04T06:25:07.065Z,-1.98
2023-03-04T06:28:19.717Z,-1.81
2023-03-04T06:31:32.399Z,-1.71
2023-03-04T06:34:44.768Z,-1.79
2023-03-04T06:37:57.377Z,-1.67
2023-03-04T06:41:10.905Z,-1.42
2023-03-04T06:44:23.798Z,-1.05
2023-03-04T06:47:36.206Z,-1.04
2023-03-04T06:50:48.870Z,-0.83
2023-03-04T06:54:01.279Z,-0.72
2023-03-04T06:57:13.903Z,-0.62
2023-03-04T07:00:26.310Z,-0.58
2023-03-04T07:03:38.912Z,-0.38
2023-03-04T07:06:51.318Z,-0.42
2023-03-04T07:10:04.412Z,-0.34
2023-03-04T07:13:16.730Z,-0.19
2023-03-04T07:16:29.507Z,0.11
2023-03-04T07:19:41.998Z,0.16
2023-03-04T07:22:54.601Z,0.42
2023-03-04T07:26:07.062Z,0.64
2023-03-04T07:29:19.668Z,0.65
2023-03-04T07:32:34.444Z,0.88
2023-03-04T07:35:47.157Z,1.05
2023-03-04T07:38:59.494Z,1.27
2023-03-04T07:42:12.113Z,1.37
2023-03-04T07:45:25.789Z,1.52
2023-03-04T07:48:38.467Z,1.57
2023-03-04T07:51:50.846Z,1.73
2023-03-04T07:55:03.456Z,1.98
2023-03-04T07:58:19.881Z,2.16
2023-03-04T08:01:36.527Z,2.54
2023-03-04T08:04:49.147Z,2.67
2023-03-04T08:08:02.837Z,2.90
2023-03-04T08:11:17.299Z,2.94
2023-03-04T08:14:29.657Z,3.14
2023-03-04T08:17:42.318Z,3.46
2023-03-04T08:20:54.638Z,3.49
2023-03-04T08:24:08.954Z,3.69
2023-03-04T08:27:21.444Z,3.81
2023-03-04T08:30:34.059Z,3.94
2023-03-04T08:33:46.910Z,4.34
2023-03-04T08:36:59.563Z,4.52
2023-03-04T08:40:12.862Z,4.69
2023-03-04T08:43:25.763Z,4.82
2023-03-04T08:46:38.706Z,4.94
2023-03-04T08:49:52.177Z,5.18
2023-03-04T08:53:04.461Z,5.25
2023-03-04T08:56:17.201Z,5.38
2023-03-04T08:59:29.586Z,5.74
2023-03-04T09:02:42.239Z,5.99
2023-03-04T09:05:54.965Z,6.12
2023-03-04T09:09:07.666Z,6.37
2023-03-04T09:12:20.053Z,6.67
2023-03-04T09:15:35.718Z,7.00
2023-03-04T09:18:48.051Z,7.03
2023-03-04T09:22:00.696Z,7.02
2023-03-04T09:25:14.670Z,7.17
2023-03-04T09:28:27.416Z,7.35
2023-03-04T09:31:39.779Z,7.42
2023-03-04T09:34:52.368Z,7.32
2023-03-04T09:38:04.706Z,7.52
2023-03-04T09:41:27.476Z,7.61
2023-03-04T09:44:41.649Z,7.51
2023-03-04T09:47:54.628Z,7.77
2023-03-04T09:51:20.641Z,8.07
2023-03-04T09:54:57.583Z,8.02
2023-03-04T09:58:19.770Z,7.95
2023-03-04T10:01:54.440Z,7.92
2023-03-04T10:05:07.150Z,8.13
2023-03-04T10:08:42.360Z,8.29
2023-03-04T10:12:02.448Z,8.36
2023-03-04T10:15:42.560Z,8.56
2023-03-04T10:18:57.582Z,8.70
2023-03-04T10:22:28.500Z,8.50
2023-03-04T10:25:44.037Z,8.66
2023-03-04T10:28:56.367Z,8.70
2023-03-04T10:32:13.066Z,8.91
2023-03-04T10:35:27.804Z,8.54
2023-03-04T10:38:41.525Z,8.88
2023-03-04T10:42:04.779Z,8.88
2023-03-04T10:45:25.629Z,8.90
2023-03-04T10:48:38.170Z,8.88
2023-03-04T10:52:12.682Z,8.96
2023-03-04T10:55:27.609Z,8.90
2023-03-04T10:58:40.224Z,8.99
2023-03-04T11:01:54.075Z,8.93
2023-03-04T11:05:23.739Z,9.17
2023-03-04T11:08:36.106Z,9.24
2023-03-04T11:11:49.804Z,9.22
2023-03-04T11:15:02.519Z,9.22
2023-03-04T11:18:15.150Z,9.45
2023-03-04T11:21:29.495Z,9.73
2023-03-04T11:24:42.102Z,9.85
2023-03-04T11:27:56.840Z,9.77
2023-03-04T11:31:13.296Z,9.50
2023-03-04T11:34:52.215Z,9.77
2023-03-04T11:38:44.280Z,9.89
2023-03-04T11:42:18.629Z,10.03
2023-03-04T11:46:05.887Z,9.78
2023-03-04T11:49:21.113Z,9.97
2023-03-04T11:52:51.890Z,9.78
2023-03-04T11:56:30.355Z,9.99
2023-03-04T11:59:55.227Z,10.06
2023-03-04T12:03:45.038Z,9.70
2023-03-04T12:07:28.388Z,10.11
2023-03-04T12:10:59.065Z,10.20
2023-03-04T12:14:19.228Z,10.20
2023-03-04T12:17:51.787Z,10.02
2023-03-04T12:21:13.134Z,10.37
2023-03-04T12:24:43.929Z,9.95
2023-03-04T12:28:18.257Z,10.08
2023-03-04T12:31:34.261Z,10.23
2023-03-04T12:35:05.679Z,10.14
2023-03-04T12:38:21.045Z,10.34
2023-03-04T12:41:48.614Z,10.40
2023-03-04T12:45:15.814Z,10.55
2023-03-04T12:48:47.388Z,10.61
2023-03-04T12:52:11.838Z,10.63
2023-03-04T12:55:30.779Z,10.61
2023-03-04T12:58:43.093Z,10.64
2023-03-04T13:02:24.871Z,11.00
2023-03-04T13:05:52.502Z,10.59
2023-03-04T13:09:30.311Z,10.45
2023-03-04T13:12:53.467Z,10.83
2023-03-04T13:16:27.100Z,10.88
2023-03-04T13:19:56.009Z,10.93
2023-03-04T13:23:14.819Z,10.90
2023-03-04T13:26:33.040Z,10.98
2023-03-04T13:29:45.672Z,10.91
2023-03-04T13:33:18.110Z,10.89
2023-03-04T13:36:54.928Z,10.76
2023-03-04T13:40:37.730Z,10.90
2023-03-04T13:43:59.626Z,10.84
2023-03-04T13:47:17.823Z,11.29
2023-03-04T13:50:36.502Z,11.35
2023-03-04T13:54:12.840Z,11.62
2023-03-04T13:57:25.439Z,11.87
2023-03-04T14:00:37.772Z,11.80
2023-03-04T14:03:50.521Z,11.87
2023-03-04T14:07:19.029Z,11.66
2023-03-04T14:10:31.628Z,12.09
2023-03-04T14:13:44.020Z,11.97
2023-03-04T14:17:01.530Z,11.89
2023-03-04T14:20:29.952Z,12.03
2023-03-04T14:23:42.518Z,12.03
2023-03-04T14:27:11.764Z,12.14
2023-03-04T14:30:41.437Z,12.10
2023-03-04T14:34:01.929Z,12.28
2023-03-04T14:37:26.205Z,12.13
2023-03-04T14:40:41.976Z,12.22
2023-03-04T14:44:09.424Z,12.36
2023-03-04T14:47:32.231Z,12.42
2023-03-04T14:50:49.830Z,12.75
2023-03-04T14:54:01.988Z,12.17
2023-03-04T14:57:29.887Z,11.98
2023-03-04T15:00:43.214Z,12.33
2023-03-04T15:04:02.864Z,12.35
2023-03-04T15:07:31.789Z,12.12
2023-03-04T15:10:44.430Z,12.17
2023-03-04T15:13:57.224Z,11.87
2023-03-04T15:17:46.944Z,11.54
2023-03-04T15:21:04.461Z,11.39
2023-03-04T15:24:19.904Z,11.28
2023-03-04T15:27:32.662Z,11.35
2023-03-04T15:30:45.349Z,11.19
2023-03-04T15:33:57.728Z,11.08
2023-03-04T15:37:13.784Z,10.79
2023-03-04T15:40:26.205Z,10.66
2023-03-04T15:43:38.811Z,10.51
2023-03-04T15:46:51.212Z,10.42
2023-03-04T15:50:03.977Z,10.38
2023-03-04T15:53:40.087Z,10.26
2023-03-04T15:56:52.914Z,10.29
2023-03-04T16:00:05.752Z,9.99
2023-03-04T16:03:23.705Z,9.91
2023-03-04T16:06:37.424Z,9.68
2023-03-04T16:09:53.168Z,9.45
2023-03-04T16:13:05.855Z,9.26
2023-03-04T16:16:18.293Z,9.08
2023-03-04T16:19:30.993Z,8.86
2023-03-04T16:22:43.885Z,8.71
2023-03-04T16:25:57.027Z,8.46
2023-03-04T16:29:09.517Z,8.20
2023-03-04T16:32:22.191Z,8.08
2023-03-04T16:35:35.985Z,7.87
2023-03-04T16:38:48.904Z,7.71
2023-03-04T16:42:02.629Z,7.65
2023-03-04T16:45:23.379Z,7.53
2023-03-04T16:48:35.750Z,7.53
2023-03-04T16:51:49.204Z,7.38
2023-03-04T16:55:01.614Z,7.37
2023-03-04T16:58:14.193Z,7.39
2023-03-04T17:01:28.612Z,7.33
2023-03-04T17:04:41.701Z,7.26
2023-03-04T17:07:54.017Z,7.25
2023-03-04T17:11:06.722Z,7.29
2023-03-04T17:14:19.028Z,7.17
2023-03-04T17:17:31.729Z,7.06
2023-03-04T17:20:44.103Z,7.02
2023-03-04T17:23:56.793Z,6.99
2023-03-04T17:27:09.162Z,7.00
2023-03-04T17:30:21.798Z,6.91
2023-03-04T17:33:34.121Z,6.86
2023-03-04T17:36:47.164Z,6.79
2023-03-04T17:39:59.551Z,6.77
2023-03-04T17:43:12.258Z,6.68
2023-03-04T17:46:26.460Z,6.57
2023-03-04T17:49:39.105Z,6.50
2023-03-04T17:52:51.440Z,6.46
2023-03-04T17:56:05.237Z,6.40
2023-03-04T17:59:17.597Z,6.37
2023-03-04T18:02:30.316Z,6.33
2023-03-04T18:05:43.072Z,6.22
2023-03-04T18:08:55.433Z,6.18
2023-03-04T18:12:08.060Z,6.17
2023-03-04T18:15:20.409Z,6.10
2023-03-04T18:18:33.018Z,6.10
2023-03-04T18:21:45.423Z,5.99
2023-03-04T18:24:58.029Z,5.95
2023-03-04T18:28:10.357Z,5.94
2023-03-04T18:31:25.091Z,5.79
2023-03-04T18:34:37.508Z,5.69
2023-03-04T18:37:50.201Z,5.65
2023-03-04T18:41:04.721Z,5.51
2023-03-04T18:44:17.576Z,5.46
2023-03-04T18:47:29.993Z,5.37
2023-03-04T18:50:43.066Z,5.28
2023-03-04T18:53:55.373Z,5.19
2023-03-04T18:57:12.445Z,5.09
2023-03-04T19:00:24.968Z,5.01
2023-03-04T19:03:37.785Z,4.92
2023-03-04T19:06:50.124Z,4.84
2023-03-04T19:10:03.177Z,4.75
2023-03-04T19:13:18.335Z,4.64
2023-03-04T19:16:31.039Z,4.58
2023-03-04T19:19:43.453Z,4.41
2023-03-04T19:22:56.030Z,4.24
2023-03-04T19:26:08.532Z,4.15
2023-03-04T19:29:21.197Z,4.08
2023-03-04T19:32:33.659Z,3.96
2023-03-04T19:35:46.923Z,3.93
2023-03-04T19:39:00.928Z,3.76
2023-03-04T19:42:14.016Z,3.71
2023-03-04T19:45:26.348Z,3.72
2023-03-04T19:48:39.378Z,3.64
2023-03-04T19:51:51.693Z,3.53
2023-03-04T19:55:05.156Z,3.48
2023-03-04T19:58:17.550Z,3.43
2023-03-04T20:01:31.889Z,3.42
2023-03-04T20:04:44.725Z,3.38
2023-03-04T20:07:57.072Z,3.39
2023-03-04T20:11:12.663Z,3.41
2023-03-04T20:14:25.715Z,3.36
2023-03-04T20:17:38.368Z,3.39
2023-03-04T20:20:51.941Z,3.33
2023-03-04T20:24:04.816Z,3.35
2023-03-04T20:27:17.478Z,3.28
2023-03-04T20:30:30.134Z,3.17
2023-03-04T20:33:42.519Z,3.27
2023-03-04T20:36:55.125Z,3.16
2023-03-04T20:40:08.321Z,3.04
2023-03-04T20:43:23.071Z,3.00
2023-03-04T20:46:41.989Z,2.99
2023-03-04T20:49:54.658Z,3.00
2023-03-04T20:53:06.983Z,2.96
2023-03-04T20:56:19.697Z,2.98
2023-03-04T20:59:32.151Z,2.92
2023-03-04T21:02:44.792Z,2.88
2023-03-04T21:05:57.143Z,2.78
2023-03-04T21:09:12.032Z,2.66
2023-03-04T21:12:24.383Z,2.63
2023-03-04T21:15:37.078Z,2.59
2023-03-04T21:18:49.483Z,2.53
2023-03-04T21:22:02.397Z,2.48
2023-03-04T21:25:14.965Z,2.53
2023-03-04T21:28:27.567Z,2.43
2023-03-04T21:31:41.714Z,2.45
2023-03-04T21:34:54.806Z,2.43
2023-03-04T21:38:07.133Z,2.46
2023-03-04T21:41:21.126Z,2.38
2023-03-04T21:44:47.918Z,2.29
2023-03-04T21:48:01.537Z,2.28
2023-03-04T21:51:14.788Z,2.21
2023-03-04T21:54:27.472Z,2.19
2023-03-04T21:57:39.772Z,2.12
2023-03-04T22:00:52.625Z,2.10
2023-03-04T22:04:05.310Z,2.15
2023-03-04T22:07:17.749Z,2.07
2023-03-04T22:10:31.116Z,2.11
2023-03-04T22:13:43.573Z,1.98
2023-03-04T22:16:56.798Z,2.03
2023-03-04T22:20:09.993Z,1.97
2023-03-04T22:23:22.580Z,1.98
2023-03-04T22:26:35.014Z,1.91
2023-03-04T22:29:47.666Z,2.01
2023-03-04T22:32:59.968Z,1.87
2023-03-04T22:36:12.755Z,1.95
2023-03-04T22:39:25.092Z,1.77
2023-03-04T22:42:37.727Z,1.83
2023-03-04T22:45:50.374Z,1.83
2023-03-04T22:49:06.776Z,1.77
2023-03-04T22:52:19.500Z,1.73
2023-03-04T22:55:32.121Z,1.80
2023-03-04T22:58:44.902Z,1.90
2023-03-04T23:01:57.836Z,1.76
2023-03-04T23:05:10.636Z,1.79
2023-03-04T23:08:23.249Z,1.76
2023-03-04T23:11:35.836Z,1.79
2023-03-04T23:14:48.650Z,1.66
2023-03-04T23:18:01.067Z,1.72
2023-03-04T23:21:21.446Z,1.66
2023-03-04T23:24:33.781Z,1.56
2023-03-04T23:27:46.465Z,1.64
2023-03-04T23:30:58.854Z,1.55
2023-03-04T23:34:12.740Z,1.50
2023-03-04T23:37:25.035Z,1.56
2023-03-04T23:40:37.650Z,1.48
2023-03-04T23:43:51.386Z,1.45
2023-03-04T23:47:04.343Z,1.43
2023-03-04T23:50:17.178Z,1.38
2023-03-04T23:53:29.913Z,1.39
2023-03-04T23:56:42.240Z,1.36
2023-03-04T23:59:54.808Z,1.35
